createdAt,value
2024-03-07T00:00:34.165Z,100.00
2024-03-07T00:01:36.291Z,100.00
2024-03-07T00:02:41.037Z,100.00
2024-03-07T00:03:43.211Z,100.00
2024-03-07T00:04:48.014Z,100.00
2024-03-07T00:05:50.304Z,100.00
2024-03-07T00:06:52.575Z,100.00
2024-03-07T00:07:59.627Z,100.00
2024-03-07T00:09:01.867Z,100.00
2024-03-07T00:10:10.923Z,100.00
2024-03-07T00:11:13.267Z,100.00
2024-03-07T00:12:18.203Z,100.00
2024-03-07T00:13:22.525Z,100.00
2024-03-07T00:14:28.824Z,100.00
2024-03-07T00:15:31.530Z,100.00
2024-03-07T00:16:36.642Z,100.00
2024-03-07T00:17:42.368Z,100.00
2024-03-07T00:18:47.361Z,100.00
2024-03-07T00:19:49.975Z,100.00
2024-03-07T00:20:56.131Z,100.00
2024-03-07T00:21:58.786Z,100.00
2024-03-07T00:23:04.261Z,100.00
2024-03-07T00:24:06.914Z,100.00
2024-03-07T00:25:16.215Z,100.00
2024-03-07T00:26:18.429Z,100.00
2024-03-07T00:27:22.140Z,100.00
2024-03-07T00:28:30.514Z,100.00
2024-03-07T00:29:33.097Z,100.00
2024-03-07T00:30:38.964Z,100.00
2024-03-07T00:31:41.081Z,100.00
2024-03-07T00:32:46.193Z,100.00
2024-03-07T00:33:59.764Z,100.00
2024-03-07T00:35:13.100Z,100.00
2024-03-07T00:36:15.270Z,100.00
2024-03-07T00:37:20.682Z,100.00
2024-03-07T00:38:22.892Z,100.00
2024-03-07T00:39:27.983Z,100.00
2024-03-07T00:40:33.860Z,100.00
2024-03-07T00:41:38.647Z,100.00
2024-03-07T00:42:40.778Z,100.00
2024-03-07T00:43:45.947Z,100.00
2024-03-07T00:44:48.156Z,100.00
2024-03-07T00:45:53.522Z,100.00
2024-03-07T00:46:55.660Z,100.00
2024-03-07T00:48:00.526Z,100.00
2024-03-07T00:49:02.849Z,100.00
2024-03-07T00:50:10.234Z,100.00
2024-03-07T00:51:12.563Z,100.00
2024-03-07T00:52:17.292Z,100.00
2024-03-07T00:53:19.444Z,100.00
2024-03-07T00:54:21.948Z,100.00
2024-03-07T00:55:26.772Z,100.00
2024-03-07T00:56:31.489Z,100.00
2024-03-07T00:57:36.227Z,100.00
2024-03-07T00:58:38.381Z,100.00
2024-03-07T00:59:43.227Z,100.00
2024-03-07T01:00:45.404Z,100.00
2024-03-07T01:01:50.404Z,100.00
2024-03-07T01:02:55.319Z,100.00
2024-03-07T01:03:57.711Z,100.00
2024-03-07T01:05:02.891Z,100.00
2024-03-07T01:06:05.520Z,100.00
2024-03-07T01:07:10.203Z,100.00
2024-03-07T01:08:15.462Z,100.00
2024-03-07T01:09:20.397Z,100.00
2024-03-07T01:10:22.584Z,100.00
2024-03-07T01:11:27.507Z,100.00
2024-03-07T01:12:35.655Z,100.00
2024-03-07T01:13:41.132Z,100.00
2024-03-07T01:14:43.270Z,100.00
2024-03-07T01:15:48.159Z,100.00
2024-03-07T01:16:50.477Z,100.00
2024-03-07T01:17:55.550Z,100.00
2024-03-07T01:18:57.707Z,100.00
2024-03-07T01:20:04.377Z,100.00
2024-03-07T01:21:07.448Z,100.00
2024-03-07T01:22:12.190Z,100.00
2024-03-07T01:23:14.307Z,100.00
2024-03-07T01:24:21.877Z,100.00
2024-03-07T01:25:24.449Z,100.00
2024-03-07T01:26:29.175Z,100.00
2024-03-07T01:27:33.984Z,100.00
2024-03-07T01:28:39.172Z,100.00
2024-03-07T01:29:42.729Z,100.00
2024-03-07T01:30:47.952Z,100.00
2024-03-07T01:31:50.472Z,100.00
2024-03-07T01:32:55.246Z,100.00
2024-03-07T01:33:57.546Z,100.00
2024-03-07T01:35:02.579Z,100.00
2024-03-07T01:36:06.421Z,100.00
2024-03-07T01:37:11.548Z,100.00
2024-03-07T01:38:14.819Z,100.00
2024-03-07T01:39:20.831Z,100.00
2024-03-07T01:40:23.229Z,100.00
2024-03-07T01:41:28.018Z,100.00
2024-03-07T01:42:30.244Z,100.00
2024-03-07T01:43:37.992Z,100.00
2024-03-07T01:44:42.011Z,100.00
2024-03-07T01:45:46.845Z,100.00
2024-03-07T01:46:51.251Z,100.00
2024-03-07T01:47:56.959Z,100.00
2024-03-07T01:49:00.162Z,100.00
2024-03-07T01:50:05.067Z,100.00
2024-03-07T01:51:07.778Z,100.00
2024-03-07T01:52:13.705Z,100.00
2024-03-07T01:53:15.945Z,100.00
2024-03-07T01:54:20.693Z,100.00
2024-03-07T01:55:23.763Z,100.00
2024-03-07T01:56:25.989Z,100.00
2024-03-07T01:57:30.962Z,100.00
2024-03-07T01:58:38.018Z,100.00
2024-03-07T01:59:43.808Z,100.00
2024-03-07T02:00:46.147Z,100.00
2024-03-07T02:01:51.097Z,100.00
2024-03-07T02:02:54.609Z,100.00
2024-03-07T02:03:59.585Z,100.00
2024-03-07T02:05:01.860Z,100.00
2024-03-07T02:06:07.268Z,100.00
2024-03-07T02:07:12.680Z,100.00
2024-03-07T02:08:18.130Z,100.00
2024-03-07T02:09:20.911Z,100.00
2024-03-07T02:10:25.628Z,100.00
2024-03-07T02:11:27.907Z,100.00
2024-03-07T02:12:33.616Z,100.00
2024-03-07T02:13:38.577Z,100.00
2024-03-07T02:14:43.307Z,100.00
2024-03-07T02:15:45.623Z,100.00
2024-03-07T02:16:50.428Z,100.00
2024-03-07T02:17:52.726Z,100.00
2024-03-07T02:18:58.809Z,100.00
2024-03-07T02:20:01.158Z,100.00
2024-03-07T02:21:13.044Z,100.00
2024-03-07T02:22:15.593Z,100.00
2024-03-07T02:23:20.388Z,100.00
2024-03-07T02:24:22.778Z,100.00
2024-03-07T02:25:28.257Z,100.00
2024-03-07T02:26:30.458Z,100.00
2024-03-07T02:27:35.264Z,100.00
2024-03-07T02:28:37.452Z,100.00
2024-03-07T02:29:42.202Z,100.00
2024-03-07T02:30:47.060Z,100.00
2024-03-07T02:31:53.030Z,100.00
2024-03-07T02:32:56.928Z,100.00
2024-03-07T02:34:02.483Z,100.00
2024-03-07T02:35:05.412Z,100.00
2024-03-07T02:36:12.908Z,100.00
2024-03-07T02:37:15.098Z,100.00
2024-03-07T02:38:20.637Z,100.00
2024-03-07T02:39:23.055Z,100.00
2024-03-07T02:40:27.855Z,100.00
2024-03-07T02:41:30.005Z,100.00
2024-03-07T02:42:34.995Z,100.00
2024-03-07T02:43:39.632Z,100.00
2024-03-07T02:44:44.381Z,100.00
2024-03-07T02:45:46.652Z,100.00
2024-03-07T02:46:51.509Z,100.00
2024-03-07T02:47:55.700Z,100.00
2024-03-07T02:49:00.713Z,100.00
2024-03-07T02:50:02.924Z,100.00
2024-03-07T02:51:08.176Z,100.00
2024-03-07T02:52:12.893Z,100.00
2024-03-07T02:53:17.650Z,100.00
2024-03-07T02:54:21.813Z,100.00
2024-03-07T02:55:26.539Z,100.00
2024-03-07T02:56:28.831Z,100.00
2024-03-07T02:57:33.652Z,100.00
2024-03-07T02:58:35.781Z,100.00
2024-03-07T02:59:40.531Z,100.00
2024-03-07T03:00:42.662Z,100.00
2024-03-07T03:01:47.578Z,100.00
2024-03-07T03:02:50.681Z,100.00
2024-03-07T03:03:55.721Z,100.00
2024-03-07T03:04:57.947Z,100.00
2024-03-07T03:06:03.843Z,100.00
2024-03-07T03:07:06.609Z,100.00
2024-03-07T03:08:15.425Z,100.00
2024-03-07T03:09:19.119Z,100.00
2024-03-07T03:10:27.990Z,100.00
2024-03-07T03:11:31.269Z,100.00
2024-03-07T03:12:38.322Z,100.00
2024-03-07T03:13:40.869Z,100.00
2024-03-07T03:14:47.207Z,100.00
2024-03-07T03:15:49.363Z,100.00
2024-03-07T03:16:54.029Z,100.00
2024-03-07T03:17:56.297Z,100.00
2024-03-07T03:18:59.075Z,100.00
2024-03-07T03:20:04.563Z,100.00
2024-03-07T03:21:06.776Z,100.00
2024-03-07T03:22:11.532Z,100.00
2024-03-07T03:23:20.973Z,100.00
2024-03-07T03:24:26.942Z,100.00
2024-03-07T03:25:29.074Z,100.00
2024-03-07T03:26:34.099Z,100.00
2024-03-07T03:27:36.261Z,100.00
2024-03-07T03:28:42.728Z,100.00
2024-03-07T03:29:46.403Z,100.00
2024-03-07T03:30:49.778Z,100.00
2024-03-07T03:31:54.701Z,100.00
2024-03-07T03:32:56.970Z,100.00
2024-03-07T03:33:59.323Z,100.00
2024-03-07T03:35:04.440Z,100.00
2024-03-07T03:36:06.887Z,100.00
2024-03-07T03:37:12.722Z,100.00
2024-03-07T03:38:19.456Z,100.00
2024-03-07T03:39:24.811Z,100.00
2024-03-07T03:40:27.384Z,100.00
2024-03-07T03:41:33.368Z,100.00
2024-03-07T03:42:37.378Z,100.00
2024-03-07T03:43:42.415Z,100.00
2024-03-07T03:44:44.567Z,100.00
2024-03-07T03:45:49.454Z,100.00
2024-03-07T03:46:51.666Z,100.00
2024-03-07T03:47:57.688Z,100.00
2024-03-07T03:48:59.931Z,100.00
2024-03-07T03:50:04.688Z,100.00
2024-03-07T03:51:08.834Z,100.00
2024-03-07T03:52:13.637Z,100.00
2024-03-07T03:53:19.335Z,100.00
2024-03-07T03:54:24.128Z,100.00
2024-03-07T03:55:27.657Z,100.00
2024-03-07T03:56:33.462Z,100.00
2024-03-07T03:57:35.691Z,100.00
2024-03-07T03:58:40.420Z,100.00
2024-03-07T03:59:45.983Z,100.00
2024-03-07T04:00:50.800Z,100.00
2024-03-07T04:01:53.021Z,100.00
2024-03-07T04:02:57.925Z,100.00
2024-03-07T04:04:00.092Z,100.00
2024-03-07T04:05:05.043Z,100.00
2024-03-07T04:06:08.424Z,100.00
2024-03-07T04:07:13.451Z,100.00
2024-03-07T04:08:18.775Z,100.00
2024-03-07T04:09:24.824Z,100.00
2024-03-07T04:10:26.975Z,100.00
2024-03-07T04:11:31.766Z,100.00
2024-03-07T04:12:34.267Z,100.00
2024-03-07T04:13:39.686Z,100.00
2024-03-07T04:14:42.497Z,100.00
2024-03-07T04:15:47.221Z,100.00
2024-03-07T04:16:49.425Z,100.00
2024-03-07T04:17:54.434Z,100.00
2024-03-07T04:18:59.103Z,100.00
2024-03-07T04:20:04.290Z,100.00
2024-03-07T04:21:06.576Z,100.00
2024-03-07T04:22:12.215Z,100.00
2024-03-07T04:23:14.696Z,100.00
2024-03-07T04:24:22.084Z,100.00
2024-03-07T04:25:26.263Z,100.00
2024-03-07T04:26:31.063Z,100.00
2024-03-07T04:27:33.943Z,100.00
2024-03-07T04:28:38.787Z,100.00
2024-03-07T04:29:40.960Z,100.00
2024-03-07T04:30:46.624Z,100.00
2024-03-07T04:31:49.184Z,100.00
2024-03-07T04:32:53.971Z,100.00
2024-03-07T04:33:56.217Z,100.00
2024-03-07T04:35:02.098Z,100.00
2024-03-07T04:36:05.251Z,100.00
2024-03-07T04:37:10.632Z,100.00
2024-03-07T04:38:16.626Z,100.00
2024-03-07T04:39:33.678Z,100.00
2024-03-07T04:40:36.091Z,100.00
2024-03-07T04:41:41.203Z,100.00
2024-03-07T04:42:43.999Z,100.00
2024-03-07T04:43:48.744Z,100.00
2024-03-07T04:44:50.981Z,100.00
2024-03-07T04:45:53.218Z,100.00
2024-03-07T04:46:59.217Z,100.00
2024-03-07T04:48:01.673Z,100.00
2024-03-07T04:49:06.362Z,100.00
2024-03-07T04:50:12.054Z,100.00
2024-03-07T04:51:16.861Z,100.00
2024-03-07T04:52:18.931Z,100.00
2024-03-07T04:53:23.724Z,100.00
2024-03-07T04:54:30.058Z,100.00
2024-03-07T04:55:35.024Z,100.00
2024-03-07T04:56:37.159Z,100.00
2024-03-07T04:57:42.979Z,100.00
2024-03-07T04:58:46.089Z,100.00
2024-03-07T04:59:50.902Z,100.00
2024-03-07T05:00:53.171Z,100.00
2024-03-07T05:01:59.008Z,100.00
2024-03-07T05:03:01.178Z,100.00
2024-03-07T05:04:04.493Z,100.00
2024-03-07T05:05:09.568Z,100.00
2024-03-07T05:06:11.696Z,100.00
2024-03-07T05:07:16.466Z,100.00
2024-03-07T05:08:18.623Z,100.00
2024-03-07T05:09:27.616Z,100.00
2024-03-07T05:10:32.810Z,100.00
2024-03-07T05:11:38.567Z,100.00
2024-03-07T05:12:40.725Z,100.00
2024-03-07T05:13:45.560Z,100.00
2024-03-07T05:14:47.791Z,100.00
2024-03-07T05:15:52.017Z,100.00
2024-03-07T05:17:06.591Z,100.00
2024-03-07T05:18:09.518Z,100.00
2024-03-07T05:19:15.374Z,100.00
2024-03-07T05:20:17.655Z,100.00
2024-03-07T05:21:39.597Z,100.00
2024-03-07T05:22:42.318Z,100.00
2024-03-07T05:23:47.137Z,100.00
2024-03-07T05:24:51.402Z,100.00
2024-03-07T05:25:58.777Z,100.00
2024-03-07T05:27:01.229Z,100.00
2024-03-07T05:28:06.685Z,100.00
2024-03-07T05:29:10.676Z,100.00
2024-03-07T05:30:17.104Z,100.00
2024-03-07T05:31:22.202Z,100.00
2024-03-07T05:32:26.906Z,100.00
2024-03-07T05:33:32.010Z,100.00
2024-03-07T05:34:35.286Z,100.00
2024-03-07T05:35:45.010Z,100.00
2024-03-07T05:36:48.004Z,100.00
2024-03-07T05:37:53.685Z,100.00
2024-03-07T05:38:55.934Z,100.00
2024-03-07T05:40:01.315Z,100.00
2024-03-07T05:41:06.237Z,100.00
2024-03-07T05:42:15.329Z,100.00
2024-03-07T05:43:17.603Z,100.00
2024-03-07T05:44:23.809Z,100.00
2024-03-07T05:45:25.976Z,100.00
2024-03-07T05:46:30.723Z,100.00
2024-03-07T05:47:33.116Z,100.00
2024-03-07T05:48:37.999Z,100.00
2024-03-07T05:49:40.286Z,100.00
2024-03-07T05:50:47.356Z,100.00
2024-03-07T05:51:52.223Z,100.00
2024-03-07T05:52:56.965Z,100.00
2024-03-07T05:53:59.257Z,100.00
2024-03-07T05:55:04.023Z,100.00
2024-03-07T05:56:09.474Z,100.00
2024-03-07T05:57:14.568Z,100.00
2024-03-07T05:58:17.320Z,100.00
2024-03-07T05:59:19.564Z,100.00
2024-03-07T06:00:29.221Z,100.00
2024-03-07T06:01:34.154Z,100.00
2024-03-07T06:02:38.895Z,100.00
2024-03-07T06:03:41.565Z,100.00
2024-03-07T06:04:47.191Z,100.00
2024-03-07T06:05:49.812Z,100.00
2024-03-07T06:06:55.308Z,100.00
2024-03-07T06:07:57.991Z,100.00
2024-03-07T06:09:00.340Z,100.00
2024-03-07T06:10:07.801Z,100.00
2024-03-07T06:11:14.609Z,100.00
2024-03-07T06:12:27.138Z,100.00
2024-03-07T06:13:30.308Z,100.00
2024-03-07T06:14:35.202Z,100.00
2024-03-07T06:15:39.540Z,100.00
2024-03-07T06:16:46.475Z,100.00
2024-03-07T06:17:48.670Z,100.00
2024-03-07T06:18:53.477Z,100.00
2024-03-07T06:19:55.613Z,100.00
2024-03-07T06:20:57.790Z,100.00
2024-03-07T06:22:02.550Z,100.00
2024-03-07T06:23:06.575Z,100.00
2024-03-07T06:24:13.444Z,100.00
2024-03-07T06:25:20.490Z,100.00
2024-03-07T06:26:38.470Z,100.00
2024-03-07T06:27:49.899Z,100.00
2024-03-07T06:28:52.021Z,100.00
2024-03-07T06:29:57.029Z,100.00
2024-03-07T06:30:59.837Z,100.00
2024-03-07T06:32:07.774Z,100.00
2024-03-07T06:33:10.397Z,100.00
2024-03-07T06:34:15.292Z,100.00
2024-03-07T06:35:17.631Z,100.00
2024-03-07T06:36:23.226Z,100.00
2024-03-07T06:37:25.348Z,100.00
2024-03-07T06:38:31.088Z,100.00
2024-03-07T06:39:33.258Z,100.00
2024-03-07T06:40:38.497Z,100.00
2024-03-07T06:41:43.720Z,100.00
2024-03-07T06:42:48.494Z,100.00
2024-03-07T06:43:51.212Z,100.00
2024-03-07T06:44:56.008Z,100.00
2024-03-07T06:45:58.270Z,100.00
2024-03-07T06:47:04.354Z,100.00
2024-03-07T06:48:08.425Z,100.00
2024-03-07T06:49:13.294Z,100.00
2024-03-07T06:50:27.451Z,100.00
2024-03-07T06:51:37.831Z,100.00
2024-03-07T06:52:39.978Z,100.00
2024-03-07T06:53:44.796Z,100.00
2024-03-07T06:54:47.116Z,100.00
2024-03-07T06:55:50.336Z,100.00
2024-03-07T06:56:57.833Z,100.00
2024-03-07T06:58:00.016Z,100.00
2024-03-07T06:59:06.324Z,100.00
2024-03-07T07:00:12.426Z,100.00
2024-03-07T07:01:17.721Z,100.00
2024-03-07T07:02:20.039Z,100.00
2024-03-07T07:03:25.285Z,100.00
2024-03-07T07:04:40.096Z,100.00
2024-03-07T07:05:46.097Z,100.00
2024-03-07T07:06:48.260Z,100.00
2024-03-07T07:07:53.206Z,100.00
2024-03-07T07:08:55.356Z,100.00
2024-03-07T07:10:00.241Z,100.00
2024-03-07T07:11:02.401Z,100.00
2024-03-07T07:12:10.537Z,100.00
2024-03-07T07:13:14.512Z,100.00
2024-03-07T07:14:22.081Z,100.00
2024-03-07T07:15:24.321Z,100.00
2024-03-07T07:16:31.191Z,100.00
2024-03-07T07:17:33.549Z,100.00
2024-03-07T07:18:39.944Z,100.00
2024-03-07T07:19:42.264Z,100.00
2024-03-07T07:20:50.593Z,100.00
2024-03-07T07:21:54.957Z,100.00
2024-03-07T07:23:02.113Z,100.00
2024-03-07T07:24:04.945Z,100.00
2024-03-07T07:25:14.566Z,100.00
2024-03-07T07:26:16.840Z,100.00
2024-03-07T07:27:22.857Z,100.00
2024-03-07T07:28:28.306Z,100.00
2024-03-07T07:29:30.875Z,100.00
2024-03-07T07:30:35.767Z,100.00
2024-03-07T07:31:37.918Z,100.00
2024-03-07T07:32:44.299Z,100.00
2024-03-07T07:33:47.274Z,100.00
2024-03-07T07:34:52.767Z,100.00
2024-03-07T07:35:54.914Z,100.00
2024-03-07T07:36:59.662Z,100.00
2024-03-07T07:38:03.275Z,100.00
2024-03-07T07:39:08.011Z,100.00
2024-03-07T07:40:14.405Z,100.00
2024-03-07T07:41:19.102Z,100.00
2024-03-07T07:42:23.804Z,100.00
2024-03-07T07:43:41.529Z,100.00
2024-03-07T07:44:45.527Z,100.00
2024-03-07T07:45:50.746Z,100.00
2024-03-07T07:46:52.871Z,100.00
2024-03-07T07:47:57.900Z,100.00
2024-03-07T07:49:00.121Z,100.00
2024-03-07T07:50:08.353Z,100.00
2024-03-07T07:51:10.595Z,100.00
2024-03-07T07:52:17.469Z,100.00
2024-03-07T07:53:19.712Z,100.00
2024-03-07T07:54:26.003Z,100.00
2024-03-07T07:55:29.069Z,100.00
2024-03-07T07:56:33.921Z,100.00
2024-03-07T07:57:39.997Z,100.00
2024-03-07T07:58:45.424Z,100.00
2024-03-07T07:59:47.596Z,100.00
2024-03-07T08:00:52.368Z,100.00
2024-03-07T08:01:56.893Z,100.00
2024-03-07T08:03:03.313Z,100.00
2024-03-07T08:04:05.810Z,100.00
2024-03-07T08:05:10.288Z,100.00
2024-03-07T08:06:15.345Z,100.00
2024-03-07T08:07:17.684Z,100.00
2024-03-07T08:08:23.434Z,100.00
2024-03-07T08:09:25.954Z,100.00
2024-03-07T08:10:32.446Z,100.00
2024-03-07T08:11:34.706Z,100.00
2024-03-07T08:12:40.213Z,100.00
2024-03-07T08:13:45.207Z,100.00
2024-03-07T08:14:47.474Z,100.00
2024-03-07T08:15:55.223Z,100.00
2024-03-07T08:16:57.666Z,100.00
2024-03-07T08:18:03.491Z,100.00
2024-03-07T08:19:06.059Z,100.00
2024-03-07T08:20:12.789Z,100.00
2024-03-07T08:21:17.482Z,100.00
2024-03-07T08:22:20.740Z,100.00
2024-03-07T08:23:26.772Z,100.00
2024-03-07T08:24:29.490Z,100.00
2024-03-07T08:25:34.283Z,100.00
2024-03-07T08:26:36.449Z,100.00
2024-03-07T08:27:46.048Z,100.00
2024-03-07T08:28:48.306Z,100.00
2024-03-07T08:29:53.137Z,100.00
2024-03-07T08:30:56.105Z,100.00
2024-03-07T08:32:00.915Z,100.00
2024-03-07T08:33:04.814Z,100.00
2024-03-07T08:34:09.662Z,100.00
2024-03-07T08:35:12.946Z,100.00
2024-03-07T08:36:17.737Z,100.00
2024-03-07T08:37:20.068Z,100.00
2024-03-07T08:38:24.901Z,100.00
2024-03-07T08:39:27.411Z,100.00
2024-03-07T08:40:34.502Z,100.00
2024-03-07T08:41:42.294Z,100.00
2024-03-07T08:42:51.510Z,100.00
2024-03-07T08:43:53.723Z,100.00
2024-03-07T08:44:55.980Z,100.00
2024-03-07T08:46:01.092Z,100.00
2024-03-07T08:47:03.267Z,100.00
2024-03-07T08:48:10.826Z,100.00
2024-03-07T08:49:15.878Z,100.00
2024-03-07T08:50:21.857Z,100.00
2024-03-07T08:51:24.440Z,100.00
2024-03-07T08:52:26.727Z,100.00
2024-03-07T08:53:31.673Z,100.00
2024-03-07T08:54:34.885Z,100.00
2024-03-07T08:55:39.639Z,100.00
2024-03-07T08:56:42.588Z,100.00
2024-03-07T08:57:50.626Z,100.00
2024-03-07T08:58:52.901Z,100.00
2024-03-07T08:59:57.939Z,100.00
2024-03-07T09:01:00.664Z,100.00
2024-03-07T09:02:06.886Z,100.00
2024-03-07T09:03:12.586Z,100.00
2024-03-07T09:04:19.241Z,100.00
2024-03-07T09:05:23.744Z,100.00
2024-03-07T09:06:29.127Z,100.00
2024-03-07T09:07:31.348Z,100.00
2024-03-07T09:08:36.107Z,100.00
2024-03-07T09:09:38.284Z,100.00
2024-03-07T09:10:43.684Z,100.00
2024-03-07T09:11:46.158Z,100.00
2024-03-07T09:12:53.440Z,100.00
2024-03-07T09:13:58.588Z,100.00
2024-03-07T09:15:03.777Z,100.00
2024-03-07T09:16:08.964Z,100.00
2024-03-07T09:17:11.087Z,100.00
2024-03-07T09:18:16.193Z,99.00
2024-03-07T09:19:21.566Z,95.33
2024-03-07T09:20:26.448Z,97.91
2024-03-07T09:21:28.611Z,96.14
2024-03-07T09:22:34.037Z,90.63
2024-03-07T09:23:36.328Z,90.56
2024-03-07T09:24:41.292Z,92.93
2024-03-07T09:25:44.271Z,93.82
2024-03-07T09:26:46.832Z,90.27
2024-03-07T09:27:55.940Z,92.22
2024-03-07T09:28:58.484Z,88.70
2024-03-07T09:30:03.325Z,86.36
2024-03-07T09:31:05.550Z,90.04
2024-03-07T09:32:10.795Z,95.35
2024-03-07T09:33:13.359Z,94.24
2024-03-07T09:34:18.239Z,91.68
2024-03-07T09:35:20.763Z,91.45
2024-03-07T09:36:25.568Z,85.67
2024-03-07T09:37:27.965Z,84.80
2024-03-07T09:38:32.752Z,86.48
2024-03-07T09:39:36.321Z,87.75
2024-03-07T09:40:38.970Z,84.84
2024-03-07T09:41:43.744Z,84.70
2024-03-07T09:42:49.796Z,83.29
2024-03-07T09:44:00.108Z,81.53
2024-03-07T09:45:04.566Z,82.30
2024-03-07T09:46:11.384Z,84.37
2024-03-07T09:47:15.315Z,83.91
2024-03-07T09:48:21.165Z,86.76
2024-03-07T09:49:24.109Z,88.37
2024-03-07T09:50:29.315Z,92.47
2024-03-07T09:51:34.719Z,94.87
2024-03-07T09:52:37.534Z,97.01
2024-03-07T09:53:45.070Z,96.00
2024-03-07T09:54:47.339Z,100.00
2024-03-07T09:55:52.256Z,100.00
2024-03-07T09:56:55.945Z,100.00
2024-03-07T09:58:04.874Z,100.00
2024-03-07T09:59:14.628Z,100.00
2024-03-07T10:00:28.401Z,100.00
2024-03-07T10:01:35.291Z,100.00
2024-03-07T10:02:43.536Z,100.00
2024-03-07T10:03:48.541Z,100.00
2024-03-07T10:04:55.293Z,100.00
2024-03-07T10:05:57.551Z,100.00
2024-03-07T10:07:02.947Z,100.00
2024-03-07T10:08:07.002Z,100.00
2024-03-07T10:09:14.500Z,100.00
2024-03-07T10:10:17.403Z,100.00
2024-03-07T10:11:22.308Z,100.00
2024-03-07T10:12:24.684Z,98.64
2024-03-07T10:13:32.918Z,100.00
2024-03-07T10:14:38.755Z,100.00
2024-03-07T10:15:44.656Z,100.00
2024-03-07T10:16:48.033Z,100.00
2024-03-07T10:17:52.937Z,100.00
2024-03-07T10:18:55.235Z,100.00
2024-03-07T10:20:02.343Z,100.00
2024-03-07T10:21:05.541Z,99.78
2024-03-07T10:22:10.572Z,100.00
2024-03-07T10:23:12.924Z,100.00
2024-03-07T10:24:19.167Z,100.00
2024-03-07T10:25:23.623Z,100.00
2024-03-07T10:26:28.454Z,100.00
2024-03-07T10:27:31.053Z,100.00
2024-03-07T10:28:36.238Z,100.00
2024-03-07T10:29:41.174Z,100.00
2024-03-07T10:30:46.877Z,100.00
2024-03-07T10:31:57.468Z,100.00
2024-03-07T10:33:08.810Z,100.00
2024-03-07T10:34:11.079Z,100.00
2024-03-07T10:35:15.532Z,100.00
2024-03-07T10:36:20.675Z,100.00
2024-03-07T10:37:22.763Z,100.00
2024-03-07T10:38:27.546Z,100.00
2024-03-07T10:39:29.680Z,100.00
2024-03-07T10:40:34.446Z,100.00
2024-03-07T10:41:38.147Z,100.00
2024-03-07T10:42:46.914Z,100.00
2024-03-07T10:43:54.812Z,100.00
2024-03-07T10:45:12.165Z,100.00
2024-03-07T10:46:15.857Z,100.00
2024-03-07T10:47:22.540Z,100.00
2024-03-07T10:48:31.079Z,100.00
2024-03-07T10:49:40.727Z,100.00
2024-03-07T10:50:56.781Z,100.00
2024-03-07T10:52:07.711Z,100.00
2024-03-07T10:53:17.144Z,100.00
2024-03-07T10:54:32.062Z,100.00
2024-03-07T10:55:40.399Z,100.00
2024-03-07T10:56:59.281Z,100.00
2024-03-07T10:58:07.705Z,100.00
2024-03-07T10:59:20.812Z,100.00
2024-03-07T11:00:31.760Z,100.00
2024-03-07T11:01:40.291Z,100.00
2024-03-07T11:02:52.357Z,100.00
2024-03-07T11:03:58.787Z,100.00
2024-03-07T11:05:01.505Z,100.00
2024-03-07T11:06:08.276Z,100.00
2024-03-07T11:07:12.372Z,100.00
2024-03-07T11:08:18.218Z,100.00
2024-03-07T11:09:24.733Z,100.00
2024-03-07T11:10:30.728Z,100.00
2024-03-07T11:11:33.905Z,100.00
2024-03-07T11:12:40.721Z,100.00
2024-03-07T11:13:43.551Z,100.00
2024-03-07T11:14:47.847Z,100.00
2024-03-07T11:15:58.916Z,100.00
2024-03-07T11:17:02.238Z,100.00
2024-03-07T11:18:09.642Z,100.00
2024-03-07T11:19:27.644Z,100.00
2024-03-07T11:20:39.279Z,100.00
2024-03-07T11:21:44.820Z,100.00
2024-03-07T11:22:47.226Z,100.00
2024-03-07T11:23:52.052Z,100.00
2024-03-07T11:25:02.055Z,100.00
2024-03-07T11:26:09.213Z,100.00
2024-03-07T11:27:15.250Z,100.00
2024-03-07T11:28:21.777Z,100.00
2024-03-07T11:29:55.097Z,100.00
2024-03-07T11:31:11.635Z,100.00
2024-03-07T11:32:18.049Z,100.00
2024-03-07T11:33:22.113Z,100.00
2024-03-07T11:34:33.952Z,100.00
2024-03-07T11:35:37.250Z,100.00
2024-03-07T11:36:46.533Z,100.00
2024-03-07T11:37:53.333Z,100.00
2024-03-07T11:38:55.511Z,100.00
2024-03-07T11:40:09.299Z,100.00
2024-03-07T11:41:14.863Z,100.00
2024-03-07T11:42:31.831Z,100.00
2024-03-07T11:43:34.420Z,100.00
2024-03-07T11:44:41.328Z,100.00
2024-03-07T11:45:46.856Z,100.00
2024-03-07T11:46:54.778Z,100.00
2024-03-07T11:48:02.144Z,100.00
2024-03-07T11:49:11.448Z,100.00
2024-03-07T11:50:14.013Z,100.00
2024-03-07T11:51:26.595Z,100.00
2024-03-07T11:52:29.321Z,100.00
2024-03-07T11:53:36.662Z,100.00
2024-03-07T11:54:41.499Z,100.00
2024-03-07T11:55:47.635Z,100.00
2024-03-07T11:56:52.950Z,100.00
2024-03-07T11:57:58.163Z,100.00
2024-03-07T11:59:01.065Z,100.00
2024-03-07T12:00:12.165Z,100.00
2024-03-07T12:01:15.425Z,100.00
2024-03-07T12:02:25.192Z,100.00
2024-03-07T12:03:28.912Z,100.00
2024-03-07T12:04:36.161Z,100.00
2024-03-07T12:05:40.754Z,100.00
2024-03-07T12:06:54.579Z,100.00
2024-03-07T12:07:58.439Z,100.00
2024-03-07T12:09:04.067Z,100.00
2024-03-07T12:10:08.197Z,100.00
2024-03-07T12:11:17.226Z,100.00
2024-03-07T12:12:19.615Z,100.00
2024-03-07T12:13:26.242Z,100.00
2024-03-07T12:14:29.143Z,100.00
2024-03-07T12:15:34.905Z,100.00
2024-03-07T12:16:37.235Z,100.00
2024-03-07T12:17:42.868Z,100.00
2024-03-07T12:18:48.457Z,100.00
2024-03-07T12:19:52.578Z,100.00
2024-03-07T12:21:00.309Z,100.00
2024-03-07T12:22:03.428Z,100.00
2024-03-07T12:23:09.906Z,100.00
2024-03-07T12:24:16.535Z,100.00
2024-03-07T12:25:23.121Z,100.00
2024-03-07T12:26:31.466Z,100.00
2024-03-07T12:27:34.447Z,100.00
2024-03-07T12:28:40.434Z,100.00
2024-03-07T12:29:43.844Z,100.00
2024-03-07T12:30:53.750Z,100.00
2024-03-07T12:31:56.584Z,100.00
2024-03-07T12:33:05.471Z,100.00
2024-03-07T12:34:10.471Z,100.00
2024-03-07T12:35:14.172Z,100.00
2024-03-07T12:36:19.155Z,100.00
2024-03-07T12:37:29.361Z,100.00
2024-03-07T12:38:37.452Z,100.00
2024-03-07T12:39:47.772Z,100.00
2024-03-07T12:41:08.734Z,100.00
2024-03-07T12:42:12.998Z,100.00
2024-03-07T12:43:20.004Z,100.00
2024-03-07T12:44:23.111Z,100.00
2024-03-07T12:45:29.770Z,100.00
2024-03-07T12:46:32.402Z,100.00
2024-03-07T12:47:38.930Z,100.00
2024-03-07T12:48:47.157Z,100.00
2024-03-07T12:49:52.711Z,100.00
2024-03-07T12:50:55.333Z,100.00
2024-03-07T12:52:00.709Z,100.00
2024-03-07T12:53:07.228Z,100.00
2024-03-07T12:54:13.370Z,100.00
2024-03-07T12:55:19.529Z,100.00
2024-03-07T12:56:24.664Z,100.00
2024-03-07T12:57:26.827Z,100.00
2024-03-07T12:58:32.228Z,100.00
2024-03-07T12:59:34.521Z,100.00
2024-03-07T13:00:39.710Z,100.00
2024-03-07T13:01:46.494Z,100.00
2024-03-07T13:02:51.531Z,100.00
2024-03-07T13:03:56.358Z,100.00
2024-03-07T13:05:02.256Z,100.00
2024-03-07T13:06:06.383Z,100.00
2024-03-07T13:07:11.631Z,100.00
2024-03-07T13:08:13.916Z,100.00
2024-03-07T13:09:28.097Z,100.00
2024-03-07T13:10:31.014Z,100.00
2024-03-07T13:11:36.442Z,100.00
2024-03-07T13:12:42.954Z,100.00
2024-03-07T13:13:48.451Z,100.00
2024-03-07T13:14:50.653Z,100.00
2024-03-07T13:15:56.539Z,100.00
2024-03-07T13:17:01.924Z,98.06
2024-03-07T13:18:06.448Z,93.41
2024-03-07T13:19:15.940Z,93.80
2024-03-07T13:20:23.277Z,99.49
2024-03-07T13:21:28.581Z,97.13
2024-03-07T13:22:33.262Z,98.25
2024-03-07T13:23:41.729Z,93.63
2024-03-07T13:24:45.833Z,90.12
2024-03-07T13:25:51.110Z,82.51
2024-03-07T13:26:53.722Z,76.81
2024-03-07T13:28:04.080Z,75.98
2024-03-07T13:29:06.339Z,75.91
2024-03-07T13:30:09.845Z,79.45
2024-03-07T13:31:18.526Z,78.52
2024-03-07T13:32:20.862Z,78.35
2024-03-07T13:33:26.634Z,80.30
2024-03-07T13:34:31.801Z,80.55